createdAt,value
2024-04-08T00:01:21.396Z,4.38
2024-04-08T00:03:48.247Z,4.03
2024-04-08T00:06:15.070Z,3.92
2024-04-08T00:08:41.868Z,3.83
2024-04-08T00:11:08.974Z,3.85
2024-04-08T00:13:38.799Z,4.35
2024-04-08T00:16:08.740Z,4.10
2024-04-08T00:18:35.495Z,4.22
2024-04-08T00:21:04.158Z,4.63
2024-04-08T00:23:31.128Z,3.97
2024-04-08T00:25:57.945Z,3.95
2024-04-08T00:28:24.630Z,4.30
2024-04-08T00:30:51.351Z,4.43
2024-04-08T00:33:18.106Z,3.88
2024-04-08T00:35:44.950Z,4.30
2024-04-08T00:38:11.679Z,4.10
2024-04-08T00:40:39.145Z,3.72
2024-04-08T00:43:08.746Z,4.00
2024-04-08T00:45:40.051Z,3.58
2024-04-08T00:48:08.425Z,4.07
2024-04-08T00:50:37.180Z,4.43
2024-04-08T00:53:04.138Z,3.83
2024-04-08T00:55:33.644Z,3.30
2024-04-08T00:58:00.634Z,3.80
2024-04-08T01:00:27.352Z,3.65
2024-04-08T01:02:55.899Z,3.53
2024-04-08T01:05:22.816Z,3.67
2024-04-08T01:07:49.905Z,3.75
2024-04-08T01:10:18.618Z,3.47
2024-04-08T01:12:45.379Z,3.45
2024-04-08T01:15:12.250Z,4.07
2024-04-08T01:17:39.102Z,3.40
2024-04-08T01:20:06.358Z,3.55
2024-04-08T01:22:34.453Z,3.47
2024-04-08T01:25:01.444Z,3.08
2024-04-08T01:27:28.273Z,3.80
2024-04-08T01:29:54.992Z,3.42
2024-04-08T01:32:22.028Z,3.40
2024-04-08T01:34:48.786Z,3.15
2024-04-08T01:37:15.563Z,3.05
2024-04-08T01:39:42.403Z,3.30
2024-04-08T01:42:09.173Z,3.10
2024-04-08T01:44:36.081Z,3.22
2024-04-08T01:47:02.845Z,2.53
2024-04-08T01:49:29.715Z,2.45
2024-04-08T01:51:56.477Z,3.17
2024-04-08T01:54:23.374Z,3.00
2024-04-08T01:56:50.202Z,2.85
2024-04-08T01:59:17.012Z,2.92
2024-04-08T02:01:43.715Z,3.03
2024-04-08T02:04:10.413Z,3.00
2024-04-08T02:06:37.239Z,3.33
2024-04-08T02:09:04.283Z,2.92
2024-04-08T02:11:31.011Z,3.10
2024-04-08T02:13:57.775Z,2.72
2024-04-08T02:16:24.561Z,3.45
2024-04-08T02:18:52.269Z,3.42
2024-04-08T02:21:19.015Z,3.38
2024-04-08T02:23:46.372Z,2.72
2024-04-08T02:26:13.234Z,3.35
2024-04-08T02:28:39.968Z,2.92
2024-04-08T02:31:06.688Z,3.10
2024-04-08T02:33:33.529Z,2.78
2024-04-08T02:36:05.508Z,3.10
2024-04-08T02:38:34.229Z,3.08
2024-04-08T02:41:01.681Z,3.08
2024-04-08T02:43:28.481Z,2.90
2024-04-08T02:45:55.503Z,3.53
2024-04-08T02:48:22.319Z,3.38
2024-04-08T02:50:49.349Z,3.20
2024-04-08T02:53:16.100Z,3.22
2024-04-08T02:55:42.800Z,2.90
2024-04-08T02:58:09.631Z,2.67
2024-04-08T03:01:15.234Z,2.67
2024-04-08T03:03:42.572Z,2.28
2024-04-08T03:06:12.785Z,3.05
2024-04-08T03:08:41.413Z,2.75
2024-04-08T03:11:09.001Z,3.22
2024-04-08T03:13:40.429Z,2.75
2024-04-08T03:16:07.560Z,3.00
2024-04-08T03:18:34.296Z,2.85
2024-04-08T03:21:05.043Z,2.55
2024-04-08T03:23:32.199Z,2.70
2024-04-08T03:26:07.951Z,3.13
2024-04-08T03:28:34.969Z,2.38
2024-04-08T03:31:09.653Z,2.45
2024-04-08T03:36:09.794Z,3.50
2024-04-08T03:38:36.871Z,3.85
2024-04-08T03:41:05.914Z,4.40
2024-04-08T03:43:33.758Z,4.10
2024-04-08T03:46:01.313Z,3.75
2024-04-08T03:48:28.152Z,3.42
2024-04-08T03:50:54.902Z,3.80
2024-04-08T03:53:21.715Z,3.72
2024-04-08T03:55:48.402Z,4.45
2024-04-08T03:58:15.252Z,4.32
2024-04-08T04:00:42.005Z,4.10
2024-04-08T04:03:11.003Z,4.00
2024-04-08T04:05:37.967Z,4.10
2024-04-08T04:08:05.057Z,4.47
2024-04-08T04:10:31.850Z,3.85
2024-04-08T04:12:58.529Z,3.40
2024-04-08T04:15:25.283Z,3.65
2024-04-08T04:17:52.105Z,3.92
2024-04-08T04:20:25.891Z,3.22
2024-04-08T04:22:52.604Z,3.50
2024-04-08T04:25:19.489Z,3.28
2024-04-08T04:27:46.272Z,3.28
2024-04-08T04:30:13.073Z,3.17
2024-04-08T04:32:41.563Z,3.35
2024-04-08T04:35:08.384Z,3.20
2024-04-08T04:37:35.079Z,3.22
2024-04-08T04:40:02.070Z,3.33
2024-04-08T04:42:28.822Z,4.10
2024-04-08T04:44:55.702Z,4.05
2024-04-08T04:47:22.432Z,3.25
2024-04-08T04:49:49.163Z,2.88
2024-04-08T04:52:16.025Z,2.47
2024-04-08T04:54:42.875Z,2.83
2024-04-08T04:57:09.619Z,2.25
2024-04-08T04:59:36.343Z,2.35
2024-04-08T05:02:03.159Z,2.40
2024-04-08T05:04:29.891Z,2.25
2024-04-08T05:06:56.578Z,2.35
2024-04-08T05:09:23.273Z,2.33
2024-04-08T05:11:50.030Z,2.17
2024-04-08T05:14:17.101Z,2.10
2024-04-08T05:16:44.522Z,2.00
2024-04-08T05:19:11.251Z,1.83
2024-04-08T05:21:38.115Z,2.17
2024-04-08T05:24:05.172Z,3.10
2024-04-08T05:26:31.892Z,2.15
2024-04-08T05:28:58.571Z,2.72
2024-04-08T05:31:25.267Z,2.22
2024-04-08T05:33:52.248Z,2.08
2024-04-08T05:36:19.034Z,2.30
2024-04-08T05:38:45.840Z,2.05
2024-04-08T05:41:12.661Z,2.05
2024-04-08T05:43:39.363Z,2.05
2024-04-08T05:46:06.076Z,2.65
2024-04-08T05:48:32.828Z,1.88
2024-04-08T05:50:59.664Z,2.25
2024-04-08T05:53:26.421Z,1.88
2024-04-08T05:55:53.160Z,2.05
2024-04-08T05:58:19.865Z,2.40
2024-04-08T06:00:47.028Z,1.90
2024-04-08T06:03:13.755Z,2.13
2024-04-08T06:05:42.514Z,1.80
2024-04-08T06:08:09.344Z,1.70
2024-04-08T06:10:38.188Z,2.00
2024-04-08T06:13:05.137Z,1.65
2024-04-08T06:15:33.336Z,2.00
2024-04-08T06:18:00.507Z,1.50
2024-04-08T06:20:28.564Z,1.70
2024-04-08T06:22:55.669Z,1.60
2024-04-08T06:25:22.448Z,2.08
2024-04-08T06:27:49.150Z,2.20
2024-04-08T06:30:15.870Z,2.10
2024-04-08T06:32:42.662Z,1.70
2024-04-08T06:35:09.364Z,1.80
2024-04-08T06:37:36.079Z,2.10
2024-04-08T06:40:02.862Z,2.70
2024-04-08T06:42:29.617Z,1.67
2024-04-08T06:44:56.410Z,2.10
2024-04-08T06:47:25.681Z,1.95
2024-04-08T06:49:52.425Z,1.73
2024-04-08T06:52:19.156Z,1.90
2024-04-08T06:54:45.976Z,1.98
2024-04-08T06:57:12.792Z,1.83
2024-04-08T06:59:39.783Z,1.83
2024-04-08T07:02:06.879Z,1.90
2024-04-08T07:04:34.089Z,1.75
2024-04-08T07:07:00.856Z,1.55
2024-04-08T07:09:28.706Z,1.55
2024-04-08T07:11:59.065Z,1.60
2024-04-08T07:14:26.636Z,1.50
2024-04-08T07:16:53.454Z,1.60
2024-04-08T07:19:20.303Z,1.58
2024-04-08T07:21:47.005Z,1.80
2024-04-08T07:24:14.702Z,1.50
2024-04-08T07:26:41.433Z,1.52
2024-04-08T07:29:08.346Z,1.83
2024-04-08T07:31:35.043Z,1.73
2024-04-08T07:34:01.796Z,1.63
2024-04-08T07:36:28.507Z,1.58
2024-04-08T07:39:01.520Z,1.65
2024-04-08T07:41:29.750Z,1.60
2024-04-08T07:43:56.504Z,1.60
2024-04-08T07:46:23.186Z,1.80
2024-04-08T07:48:49.932Z,1.58
2024-04-08T07:51:16.710Z,1.52
2024-04-08T07:53:43.448Z,1.45
2024-04-08T07:56:10.234Z,1.55
2024-04-08T07:58:37.348Z,1.75
2024-04-08T08:01:05.125Z,1.88
2024-04-08T08:03:32.895Z,1.30
2024-04-08T08:06:01.376Z,1.60
2024-04-08T08:08:29.204Z,1.58
2024-04-08T08:11:04.543Z,1.77
2024-04-08T08:13:32.256Z,1.60
2024-04-08T08:16:00.010Z,1.40
2024-04-08T08:18:27.891Z,1.58
2024-04-08T08:20:55.818Z,1.60
2024-04-08T08:23:22.533Z,1.40
2024-04-08T08:25:50.004Z,1.60
2024-04-08T08:28:17.152Z,1.70
2024-04-08T08:30:43.921Z,1.50
2024-04-08T08:33:10.804Z,1.50
2024-04-08T08:35:37.651Z,1.98
2024-04-08T08:38:04.459Z,1.35
2024-04-08T08:40:33.846Z,1.70
2024-04-08T08:43:00.609Z,1.60
2024-04-08T08:45:28.674Z,1.33
2024-04-08T08:47:56.003Z,1.40
2024-04-08T08:50:24.764Z,1.52
2024-04-08T08:52:51.952Z,1.45
2024-04-08T08:55:20.804Z,1.42
2024-04-08T08:57:48.393Z,1.35
2024-04-08T09:00:18.202Z,1.40
2024-04-08T09:02:46.397Z,1.48
2024-04-08T09:05:13.198Z,1.67
2024-04-08T09:07:40.000Z,1.63
2024-04-08T09:10:07.152Z,1.20
2024-04-08T09:12:33.929Z,1.75
2024-04-08T09:15:00.793Z,1.63
2024-04-08T09:17:27.587Z,1.40
2024-04-08T09:19:54.631Z,1.63
2024-04-08T09:22:21.378Z,1.48
2024-04-08T09:24:48.102Z,1.88
2024-04-08T09:27:15.068Z,1.65
2024-04-08T09:29:41.977Z,1.30
2024-04-08T09:32:11.985Z,1.20
2024-04-08T09:34:38.687Z,1.40
2024-04-08T09:37:09.904Z,1.10
2024-04-08T09:39:41.647Z,1.30
2024-04-08T09:42:13.444Z,1.50
2024-04-08T09:44:44.872Z,1.52
2024-04-08T09:47:14.318Z,1.38
2024-04-08T09:49:48.109Z,1.08
2024-04-08T09:52:17.867Z,2.00
2024-04-08T09:54:44.705Z,1.17
2024-04-08T09:57:16.559Z,1.38
2024-04-08T09:59:43.915Z,1.30
2024-04-08T10:02:16.949Z,1.10
2024-04-08T10:04:44.160Z,1.30
2024-04-08T10:07:13.039Z,1.15
2024-04-08T10:09:40.342Z,1.27
2024-04-08T10:12:08.890Z,1.00
2024-04-08T10:14:36.131Z,1.30
2024-04-08T10:17:02.969Z,1.02
2024-04-08T10:19:29.842Z,1.20
2024-04-08T10:22:03.648Z,1.10
2024-04-08T10:24:39.214Z,0.98
2024-04-08T10:27:09.468Z,1.17
2024-04-08T10:29:39.439Z,1.50
2024-04-08T10:32:08.082Z,1.10
2024-04-08T10:34:36.095Z,1.40
2024-04-08T10:37:02.812Z,1.10
2024-04-08T10:39:30.116Z,1.00
2024-04-08T10:42:12.579Z,1.40
2024-04-08T10:44:39.423Z,1.02
2024-04-08T10:47:09.822Z,0.82
2024-04-08T10:49:37.203Z,1.00
2024-04-08T10:52:04.374Z,1.00
2024-04-08T10:54:32.665Z,1.08
2024-04-08T10:57:00.005Z,1.20
2024-04-08T10:59:27.083Z,1.27
2024-04-08T11:01:54.777Z,1.00
2024-04-08T11:04:23.031Z,1.27
2024-04-08T11:06:49.869Z,1.27
2024-04-08T11:09:17.209Z,1.40
2024-04-08T11:11:44.161Z,1.10
2024-04-08T11:14:10.898Z,1.30
2024-04-08T11:16:38.122Z,1.20
2024-04-08T11:19:04.920Z,1.10
2024-04-08T11:21:31.964Z,1.10
2024-04-08T11:23:58.817Z,1.02
2024-04-08T11:26:31.939Z,1.13
2024-04-08T11:29:02.662Z,0.90
2024-04-08T11:31:29.409Z,1.20
2024-04-08T11:33:56.137Z,1.20
2024-04-08T11:36:22.875Z,0.77
2024-04-08T11:38:50.031Z,1.00
2024-04-08T11:41:16.812Z,0.90
2024-04-08T11:43:45.837Z,1.10
2024-04-08T11:46:13.726Z,1.02
2024-04-08T11:48:42.986Z,0.77
2024-04-08T11:51:09.867Z,1.13
2024-04-08T11:53:36.603Z,0.90
2024-04-08T11:56:03.779Z,1.13
2024-04-08T11:58:30.462Z,0.90
2024-04-08T12:00:57.266Z,0.85
2024-04-08T12:03:24.281Z,1.15
2024-04-08T12:05:51.160Z,0.80
2024-04-08T12:08:17.947Z,1.25
2024-04-08T12:10:44.895Z,0.80
2024-04-08T12:13:19.875Z,0.70
2024-04-08T12:15:48.406Z,1.02
2024-04-08T12:18:15.465Z,1.00
2024-04-08T12:20:42.386Z,1.15
2024-04-08T12:23:13.123Z,1.05
2024-04-08T12:25:40.437Z,1.10
2024-04-08T12:28:09.922Z,0.90
2024-04-08T12:30:37.192Z,0.90
2024-04-08T12:33:04.695Z,1.00
2024-04-08T12:35:31.620Z,1.02
2024-04-08T12:37:58.393Z,1.20
2024-04-08T12:40:25.266Z,1.23
2024-04-08T12:42:52.198Z,1.17
2024-04-08T12:45:19.117Z,1.02
2024-04-08T12:47:46.289Z,0.88
2024-04-08T12:50:13.154Z,0.98
2024-04-08T12:52:40.167Z,0.98
2024-04-08T12:55:07.675Z,1.38
2024-04-08T12:57:34.494Z,1.30
2024-04-08T13:00:01.480Z,1.02
2024-04-08T13:02:29.633Z,1.60
2024-04-08T13:04:56.688Z,1.10
2024-04-08T13:07:23.700Z,1.13
2024-04-08T13:09:52.703Z,0.98
2024-04-08T13:12:19.721Z,1.40
2024-04-08T13:14:46.689Z,1.17
2024-04-08T13:17:14.095Z,1.20
2024-04-08T13:19:43.244Z,1.50
2024-04-08T13:22:11.734Z,1.20
2024-04-08T13:24:38.485Z,1.00
2024-04-08T13:27:05.556Z,1.33
2024-04-08T13:29:32.735Z,1.20
2024-04-08T13:31:59.479Z,1.15
2024-04-08T13:34:26.488Z,1.40
2024-04-08T13:36:53.486Z,1.10
2024-04-08T13:39:20.357Z,1.90
2024-04-08T13:41:49.011Z,1.17
2024-04-08T13:44:15.834Z,1.27
2024-04-08T13:46:43.592Z,1.08
2024-04-08T13:49:10.514Z,1.33
2024-04-08T13:51:37.398Z,1.40
2024-04-08T13:54:05.794Z,1.42
2024-04-08T13:56:34.496Z,1.77
2024-04-08T13:59:01.882Z,1.25
2024-04-08T14:01:28.894Z,1.40
2024-04-08T14:04:00.036Z,1.50
2024-04-08T14:06:27.415Z,2.30
2024-04-08T14:08:54.351Z,2.00
2024-04-08T14:11:21.453Z,1.80
2024-04-08T14:13:48.375Z,1.50
2024-04-08T14:16:15.181Z,1.50
2024-04-08T14:18:42.243Z,1.40
2024-04-08T14:21:10.808Z,1.90
2024-04-08T14:23:37.804Z,1.40
2024-04-08T14:26:04.683Z,1.73
2024-04-08T14:28:31.920Z,1.63
2024-04-08T14:30:59.105Z,1.55
2024-04-08T14:33:26.191Z,1.88
2024-04-08T14:35:53.343Z,1.52
2024-04-08T14:38:39.631Z,1.40
2024-04-08T14:41:09.498Z,1.58
2024-04-08T14:43:43.917Z,1.77
2024-04-08T14:46:18.342Z,1.75
2024-04-08T14:48:45.652Z,1.80
2024-04-08T14:51:14.189Z,1.83
2024-04-08T14:53:44.392Z,1.60
2024-04-08T14:56:13.032Z,1.63
2024-04-08T14:58:45.452Z,1.80
2024-04-08T15:01:14.446Z,1.70
2024-04-08T15:03:41.870Z,2.53
2024-04-08T15:06:09.010Z,2.08
2024-04-08T15:08:37.716Z,1.67
2024-04-08T15:11:05.418Z,1.35
2024-04-08T15:13:32.234Z,1.75
2024-04-08T15:15:59.062Z,1.70
2024-04-08T15:18:26.815Z,1.70
2024-04-08T15:20:54.132Z,2.10
2024-04-08T15:23:21.847Z,1.70
2024-04-08T15:25:48.732Z,1.95
2024-04-08T15:28:15.499Z,1.40
2024-04-08T15:30:43.268Z,1.83
2024-04-08T15:33:10.445Z,1.60
2024-04-08T15:35:37.311Z,1.98
2024-04-08T15:38:04.568Z,2.13
2024-04-08T15:40:33.855Z,1.85
2024-04-08T15:43:00.717Z,1.70
2024-04-08T15:45:27.789Z,1.83
2024-04-08T15:47:55.109Z,1.70
2024-04-08T15:50:22.036Z,1.67
2024-04-08T15:52:48.906Z,2.10
2024-04-08T15:55:18.118Z,1.33
2024-04-08T15:57:44.957Z,1.70
2024-04-08T16:00:13.761Z,1.67
2024-04-08T16:02:40.676Z,1.20
2024-04-08T16:05:07.778Z,1.40
2024-04-08T16:07:35.833Z,1.30
2024-04-08T16:10:02.698Z,1.58
2024-04-08T16:12:32.174Z,1.60
2024-04-08T16:15:01.331Z,1.25
2024-04-08T16:17:28.503Z,1.20
2024-04-08T16:19:55.273Z,1.50
2024-04-08T16:22:27.457Z,1.17
2024-04-08T16:24:57.877Z,1.40
2024-04-08T16:27:26.396Z,1.67
2024-04-08T16:29:53.529Z,1.67
2024-04-08T16:32:20.513Z,1.30
2024-04-08T16:34:47.372Z,1.70
2024-04-08T16:37:14.144Z,1.58
2024-04-08T16:39:40.919Z,1.33
2024-04-08T16:42:08.168Z,1.42
2024-04-08T16:44:35.010Z,1.70
2024-04-08T16:47:01.890Z,1.67
2024-04-08T16:49:33.942Z,1.73
2024-04-08T16:52:01.019Z,1.63
2024-04-08T16:54:30.320Z,1.67
2024-04-08T16:56:57.228Z,1.67
2024-04-08T16:59:24.020Z,2.42
2024-04-08T17:01:52.795Z,1.88
2024-04-08T17:04:19.708Z,1.90
2024-04-08T17:06:52.346Z,2.08
2024-04-08T17:09:26.239Z,1.58
2024-04-08T17:11:54.044Z,1.55
2024-04-08T17:14:20.894Z,1.80
2024-04-08T17:16:49.733Z,1.75
2024-04-08T17:19:19.916Z,1.60
2024-04-08T17:21:46.772Z,1.70
2024-04-08T17:24:13.686Z,1.88
2024-04-08T17:26:41.810Z,1.90
2024-04-08T17:29:08.540Z,1.75
2024-04-08T17:31:35.324Z,1.52
2024-04-08T17:34:02.169Z,1.60
2024-04-08T17:36:29.175Z,1.88
2024-04-08T17:38:56.008Z,1.50
2024-04-08T17:41:25.896Z,1.88
2024-04-08T17:43:57.185Z,2.97
2024-04-08T17:46:24.978Z,2.60
2024-04-08T17:48:52.096Z,2.92
2024-04-08T17:51:19.042Z,2.25
2024-04-08T17:53:45.924Z,1.90
2024-04-08T17:56:17.533Z,1.67
2024-04-08T17:58:45.563Z,2.10
2024-04-08T18:01:15.959Z,1.48
2024-04-08T18:03:44.636Z,2.20
2024-04-08T18:06:12.643Z,4.47
2024-04-08T18:08:43.639Z,2.35
2024-04-08T18:11:13.060Z,2.20
2024-04-08T18:13:41.026Z,1.98
2024-04-08T18:16:16.845Z,2.05
2024-04-08T18:18:46.918Z,2.08
2024-04-08T18:21:13.940Z,2.17
2024-04-08T18:23:41.202Z,1.92
2024-04-08T18:26:16.039Z,1.60
2024-04-08T18:28:43.738Z,2.20
2024-04-08T18:31:14.602Z,2.15
2024-04-08T18:33:42.664Z,1.77
2024-04-08T18:36:10.220Z,1.80
2024-04-08T18:38:37.482Z,2.22
2024-04-08T18:41:08.812Z,1.88
2024-04-08T18:43:37.270Z,1.55
2024-04-08T18:46:07.183Z,1.73
2024-04-08T18:48:34.341Z,1.30
2024-04-08T18:51:01.816Z,1.30
2024-04-08T18:53:28.727Z,1.80
2024-04-08T18:55:55.520Z,2.10
2024-04-08T18:58:22.264Z,1.67
2024-04-08T19:00:49.095Z,1.38
2024-04-08T19:03:19.037Z,1.58
2024-04-08T19:05:49.734Z,2.58
2024-04-08T19:08:17.293Z,5.53
2024-04-08T19:10:44.182Z,2.83
2024-04-08T19:13:11.181Z,1.92
2024-04-08T19:15:38.520Z,1.65
2024-04-08T19:18:05.900Z,1.90
2024-04-08T19:20:32.858Z,1.70
2024-04-08T19:22:59.693Z,1.58
2024-04-08T19:25:26.490Z,1.58
2024-04-08T19:27:56.814Z,1.90
2024-04-08T19:30:23.685Z,1.90
2024-04-08T19:32:50.944Z,4.95
2024-04-08T19:35:17.762Z,5.82
2024-04-08T19:37:44.759Z,2.33
2024-04-08T19:40:13.727Z,2.08
2024-04-08T19:42:40.573Z,2.35
2024-04-08T19:45:09.739Z,2.17
2024-04-08T19:47:44.577Z,2.40
2024-04-08T19:50:12.557Z,2.70
2024-04-08T19:52:39.714Z,2.40
2024-04-08T19:55:07.595Z,2.25
2024-04-08T19:57:35.683Z,2.67
2024-04-08T20:00:10.294Z,2.05
2024-04-08T20:02:39.018Z,2.13
2024-04-08T20:05:06.951Z,1.90
2024-04-08T20:07:33.804Z,3.67
2024-04-08T20:10:00.565Z,2.38
2024-04-08T20:12:27.690Z,2.40
2024-04-08T20:14:54.634Z,1.92
2024-04-08T20:17:21.523Z,2.15
2024-04-08T20:19:48.289Z,2.25
2024-04-08T20:22:15.086Z,1.50
2024-04-08T20:24:41.896Z,2.05
2024-04-08T20:27:08.870Z,1.85
2024-04-08T20:29:35.729Z,2.05
2024-04-08T20:32:02.525Z,2.03
2024-04-08T20:34:29.378Z,2.60
2024-04-08T20:36:56.662Z,2.30
2024-04-08T20:39:23.846Z,1.90
2024-04-08T20:41:50.784Z,1.80
2024-04-08T20:44:17.608Z,1.80
2024-04-08T20:46:44.375Z,1.98
2024-04-08T20:49:11.250Z,1.83
2024-04-08T20:51:45.306Z,1.80
2024-04-08T20:54:15.537Z,2.00
2024-04-08T20:56:42.622Z,1.70
2024-04-08T20:59:09.379Z,1.63
2024-04-08T21:01:36.248Z,2.00
2024-04-08T21:04:03.440Z,2.10
2024-04-08T21:06:30.383Z,2.10
2024-04-08T21:08:57.227Z,1.85
2024-04-08T21:11:24.902Z,1.75
2024-04-08T21:13:51.684Z,2.10
2024-04-08T21:16:18.414Z,1.65
2024-04-08T21:18:45.442Z,2.03
2024-04-08T21:21:12.357Z,1.75
2024-04-08T21:23:40.671Z,1.88
2024-04-08T21:26:15.529Z,1.50
2024-04-08T21:28:43.774Z,1.85
2024-04-08T21:31:11.963Z,1.60
2024-04-08T21:33:40.158Z,1.70
2024-04-08T21:36:08.552Z,1.65
2024-04-08T21:38:35.808Z,1.80
2024-04-08T21:41:05.336Z,1.67
2024-04-08T21:43:32.488Z,1.40
2024-04-08T21:46:01.748Z,2.03
2024-04-08T21:48:28.998Z,1.75
2024-04-08T21:50:58.824Z,1.90
2024-04-08T21:53:29.431Z,1.60
2024-04-08T21:56:00.224Z,1.75
2024-04-08T21:58:27.627Z,1.65
2024-04-08T22:00:56.572Z,1.40
2024-04-08T22:03:25.291Z,1.70
2024-04-08T22:05:52.292Z,1.60
2024-04-08T22:08:19.224Z,1.50
2024-04-08T22:10:46.143Z,1.70
2024-04-08T22:13:13.023Z,1.70
2024-04-08T22:15:40.452Z,1.17
2024-04-08T22:18:08.592Z,1.42
2024-04-08T22:20:35.576Z,1.60
2024-04-08T22:23:07.285Z,1.63
2024-04-08T22:25:37.685Z,1.55
2024-04-08T22:28:05.194Z,1.65
2024-04-08T22:30:32.273Z,2.00
2024-04-08T22:32:59.383Z,1.60
2024-04-08T22:35:26.333Z,1.67
2024-04-08T22:37:54.305Z,1.60
2024-04-08T22:40:21.754Z,1.80
2024-04-08T22:42:52.113Z,1.60
2024-04-08T22:45:19.041Z,1.48
2024-04-08T22:47:47.331Z,1.70
2024-04-08T22:50:14.876Z,1.30
2024-04-08T22:52:41.663Z,1.40
2024-04-08T22:55:10.874Z,1.63
2024-04-08T22:57:44.885Z,1.60
2024-04-08T23:00:13.529Z,1.55
2024-04-08T23:02:40.798Z,1.50
2024-04-08T23:05:08.391Z,1.77
2024-04-08T23:07:35.753Z,1.70
2024-04-08T23:10:03.125Z,1.60
2024-04-08T23:12:29.952Z,1.55
2024-04-08T23:14:56.710Z,1.52
2024-04-08T23:17:23.451Z,1.48
2024-04-08T23:19:50.606Z,1.85
2024-04-08T23:22:17.446Z,1.73
2024-04-08T23:24:44.180Z,1.58
2024-04-08T23:27:14.504Z,2.00
2024-04-08T23:29:41.427Z,1.60
2024-04-08T23:32:08.273Z,1.42
2024-04-08T23:34:35.380Z,1.63
2024-04-08T23:37:02.250Z,1.55
2024-04-08T23:39:29.108Z,2.08
2024-04-08T23:41:56.100Z,1.80
2024-04-08T23:44:22.946Z,1.90
2024-04-08T23:46:49.745Z,1.40
2024-04-08T23:49:16.618Z,1.50
2024-04-08T23:51:43.697Z,1.83
2024-04-08T23:54:10.840Z,1.67
2024-04-08T23:56:37.696Z,1.58
2024-04-08T23:59:04.419Z,2.20
